Vero Beach, Florida
Current Conditions -  °F | °C
As of 4:53 AM on Saturday 22 Nov 2014 (Local Time) from KVRB Reporting Station
Overcast Overcast  
Wind Chill: 22°   Ceiling: 3400
Heat Index: 22°   Visibility: 10mi
Dew Point: 18°   Wind: 17mph
Humidity: 76%   Direction: 90°E
Pressure: 30.2"   Gusts: 23mph
Location:  27.64°N, 80.39°W
Report Text: KVRB 220953Z AUTO 09015G20KT 10SM OVC034 22/18 A3020 RMK AO2 SLP224 T02220178
Loading
Personal Weather Stations






























Interactive Weather Map New forecast layout! Learn more

10-Day Weather Forecast

Advertisements
Track Severe Weather on mobile